createdAt,value
2019-02-22T00:01:00.599Z,48.57
2019-02-22T00:03:30.608Z,46.17
2019-02-22T00:06:00.452Z,45.60
2019-02-22T00:08:30.292Z,42.53
2019-02-22T00:11:00.018Z,45.87
2019-02-22T00:13:29.861Z,43.27
2019-02-22T00:15:59.820Z,56.30
2019-02-22T00:18:30.472Z,48.27
2019-02-22T00:21:00.145Z,55.70
2019-02-22T00:23:31.704Z,57.60
2019-02-22T00:26:01.622Z,47.43
2019-02-22T00:28:31.433Z,54.20
2019-02-22T00:31:01.326Z,56.53
2019-02-22T00:33:31.100Z,46.37
2019-02-22T00:36:00.966Z,45.97
2019-02-22T00:38:30.840Z,46.87
2019-02-22T00:41:00.573Z,51.13
2019-02-22T00:43:30.435Z,52.93
2019-02-22T00:46:02.224Z,40.93
2019-02-22T00:48:32.067Z,40.60
2019-02-22T00:51:03.122Z,49.60
2019-02-22T00:53:33.950Z,54.73
2019-02-22T00:56:05.347Z,45.30
2019-02-22T00:58:36.012Z,56.07
2019-02-22T01:01:05.722Z,47.33
2019-02-22T01:03:35.942Z,42.77
2019-02-22T01:06:05.658Z,51.37
2019-02-22T01:08:35.493Z,45.87
2019-02-22T01:11:05.386Z,44.03
2019-02-22T01:13:35.138Z,40.57
2019-02-22T01:16:04.956Z,41.50
2019-02-22T01:18:34.856Z,52.30
2019-02-22T01:21:04.615Z,46.27
2019-02-22T01:23:34.386Z,44.00
2019-02-22T01:26:04.241Z,43.07
2019-02-22T01:28:34.016Z,44.10
2019-02-22T01:31:05.135Z,41.73
2019-02-22T01:38:12.786Z,44.30
2019-02-22T01:40:43.935Z,45.93
2019-02-22T01:43:13.946Z,48.77
2019-02-22T01:45:43.731Z,45.20
2019-02-22T01:48:15.331Z,60.67
2019-02-22T01:50:45.044Z,51.27
2019-02-22T01:53:14.875Z,47.30
2019-02-22T01:55:44.571Z,51.67
2019-02-22T01:58:14.624Z,48.50
2019-02-22T02:00:44.519Z,54.73
2019-02-22T02:03:14.297Z,61.77
2019-02-22T02:05:45.012Z,44.97
2019-02-22T02:08:15.942Z,43.63
2019-02-22T02:10:53.832Z,46.97
2019-02-22T02:13:17.413Z,46.17
2019-02-22T02:15:48.378Z,50.77
2019-02-22T02:18:18.174Z,39.27
2019-02-22T02:20:49.063Z,53.03
2019-02-22T02:23:18.894Z,45.87
2019-02-22T02:25:50.366Z,46.27
2019-02-22T02:28:20.229Z,48.53
2019-02-22T02:30:49.943Z,52.53
2019-02-22T02:33:19.747Z,46.30
2019-02-22T02:35:49.583Z,43.10
2019-02-22T02:38:19.406Z,46.63
2019-02-22T02:40:49.178Z,55.20
2019-02-22T02:43:18.966Z,49.80
2019-02-22T02:45:48.880Z,46.93
2019-02-22T02:48:18.705Z,54.13
2019-02-22T02:50:48.606Z,52.10
2019-02-22T02:53:18.617Z,56.53
2019-02-22T02:55:48.325Z,48.60
2019-02-22T02:58:18.184Z,43.07
2019-02-22T03:00:48.345Z,56.53
2019-02-22T03:03:19.586Z,52.47
2019-02-22T03:05:59.442Z,44.40
2019-02-22T03:08:33.061Z,44.67
2019-02-22T03:11:02.834Z,49.20
2019-02-22T03:13:32.542Z,60.70
2019-02-22T03:16:02.329Z,44.00
2019-02-22T03:18:32.197Z,53.57
2019-02-22T03:21:01.898Z,45.93
2019-02-22T03:23:31.610Z,45.37
2019-02-22T03:26:02.387Z,36.90
2019-02-22T03:28:32.182Z,39.80
2019-02-22T03:31:04.675Z,54.27
2019-02-22T03:33:34.612Z,53.93
2019-02-22T03:36:05.547Z,39.53
2019-02-22T03:38:38.580Z,44.27
2019-02-22T03:41:11.420Z,53.90
2019-02-22T03:43:44.380Z,49.13
2019-02-22T03:46:16.673Z,44.93
2019-02-22T03:48:49.827Z,49.00
2019-02-22T03:51:19.726Z,51.40
2019-02-22T03:53:57.539Z,44.57
2019-02-22T03:56:28.802Z,40.50
2019-02-22T03:58:59.669Z,55.00
2019-02-22T04:01:29.490Z,56.57
2019-02-22T04:04:03.450Z,51.40
2019-02-22T04:06:39.762Z,48.43
2019-02-22T04:09:11.472Z,50.63
2019-02-22T04:11:45.835Z,44.90
2019-02-22T04:14:12.925Z,48.97
2019-02-22T04:16:42.701Z,51.70
2019-02-22T04:19:12.390Z,44.10
2019-02-22T04:21:43.890Z,46.83
2019-02-22T04:24:13.709Z,47.80
2019-02-22T04:26:43.419Z,50.83
2019-02-22T04:29:14.955Z,50.17
2019-02-22T04:31:45.426Z,39.97
2019-02-22T04:34:18.175Z,43.70
2019-02-22T04:36:47.934Z,45.67
2019-02-22T04:39:18.969Z,48.23
2019-02-22T04:41:57.740Z,46.20
2019-02-22T04:44:24.930Z,47.37
2019-02-22T04:46:56.756Z,44.00
2019-02-22T04:49:27.840Z,43.87
2019-02-22T04:51:58.110Z,48.33
2019-02-22T04:54:27.798Z,49.87
2019-02-22T04:56:57.556Z,43.30
2019-02-22T04:59:30.179Z,48.03
2019-02-22T05:01:59.886Z,49.60
2019-02-22T05:04:30.089Z,44.83
2019-02-22T05:06:59.852Z,42.30
2019-02-22T05:09:34.536Z,41.90
2019-02-22T05:12:10.890Z,39.27
2019-02-22T05:14:36.108Z,46.27
2019-02-22T05:17:06.785Z,51.87
2019-02-22T05:19:36.630Z,47.43
2019-02-22T05:22:06.347Z,43.67
2019-02-22T05:24:36.030Z,46.17
2019-02-22T05:27:05.743Z,45.73
2019-02-22T05:29:35.429Z,43.73
2019-02-22T05:32:05.256Z,46.97
2019-02-22T05:34:35.146Z,43.77
2019-02-22T05:37:05.002Z,38.17
2019-02-22T05:39:34.785Z,38.83
2019-02-22T05:42:04.595Z,37.00
2019-02-22T05:44:34.299Z,41.37
2019-02-22T05:47:04.222Z,42.10
2019-02-22T05:49:33.906Z,42.97
2019-02-22T05:52:03.829Z,34.13
2019-02-22T05:54:33.544Z,35.53
2019-02-22T05:57:03.228Z,43.07
2019-02-22T05:59:35.922Z,38.20
2019-02-22T06:02:05.821Z,32.60
2019-02-22T06:04:35.487Z,36.90
2019-02-22T06:07:05.246Z,39.87
2019-02-22T06:09:37.265Z,39.30
2019-02-22T06:12:07.040Z,42.33
2019-02-22T06:14:36.743Z,42.13
2019-02-22T06:17:14.294Z,40.90
2019-02-22T06:19:38.042Z,39.67
2019-02-22T06:22:09.198Z,40.90
2019-02-22T06:24:38.984Z,38.33
2019-02-22T06:27:08.666Z,39.70
2019-02-22T06:29:38.378Z,42.93
2019-02-22T06:32:08.116Z,38.53
2019-02-22T06:34:37.870Z,38.50
2019-02-22T06:37:07.587Z,36.07
2019-02-22T06:39:43.874Z,48.27
2019-02-22T06:42:13.890Z,39.47
2019-02-22T06:44:43.627Z,36.90
2019-02-22T06:47:14.103Z,42.93
2019-02-22T06:49:45.168Z,42.60
2019-02-22T06:52:17.720Z,33.67
2019-02-22T06:54:50.155Z,38.97
2019-02-22T06:57:23.058Z,43.07
2019-02-22T06:59:52.766Z,36.47
2019-02-22T07:02:22.550Z,40.67
2019-02-22T07:04:52.318Z,44.33
2019-02-22T07:07:22.188Z,35.53
2019-02-22T07:09:52.057Z,35.53
2019-02-22T07:12:43.322Z,43.23
2019-02-22T07:15:13.118Z,37.17
2019-02-22T07:17:42.830Z,33.73
2019-02-22T07:20:12.714Z,39.07
2019-02-22T07:22:42.491Z,35.07
2019-02-22T07:25:13.349Z,45.50
2019-02-22T07:27:43.125Z,37.20
2019-02-22T07:30:13.015Z,40.73
2019-02-22T07:32:42.895Z,38.57
2019-02-22T07:35:14.678Z,37.70
2019-02-22T07:37:51.587Z,40.77
2019-02-22T07:40:21.349Z,34.23
2019-02-22T07:42:51.106Z,40.10
2019-02-22T07:45:21.004Z,38.93
2019-02-22T07:47:53.560Z,36.17
2019-02-22T07:50:25.671Z,39.70
2019-02-22T07:52:55.379Z,36.73
2019-02-22T07:55:26.446Z,35.97
2019-02-22T07:57:56.219Z,35.87
2019-02-22T08:00:28.302Z,40.17
2019-02-22T08:02:58.079Z,40.93
2019-02-22T08:05:27.775Z,29.20
2019-02-22T08:07:57.623Z,35.13
2019-02-22T08:10:27.417Z,45.27
2019-02-22T08:12:57.157Z,41.87
2019-02-22T08:15:26.868Z,34.73
2019-02-22T08:17:56.725Z,31.40
2019-02-22T08:20:26.424Z,38.30
2019-02-22T08:22:56.197Z,34.73
2019-02-22T08:25:27.175Z,33.97
2019-02-22T08:27:56.907Z,40.17
2019-02-22T08:30:26.666Z,39.60
2019-02-22T08:32:56.486Z,37.43
2019-02-22T08:35:26.790Z,37.07
2019-02-22T08:37:56.603Z,29.67
2019-02-22T08:40:26.379Z,35.63
2019-02-22T08:42:56.492Z,35.27
2019-02-22T08:45:26.345Z,43.47
2019-02-22T08:47:56.119Z,31.93
2019-02-22T08:50:26.091Z,30.97
2019-02-22T08:52:55.911Z,41.40
2019-02-22T08:55:25.952Z,30.10
2019-02-22T08:57:55.659Z,34.93
2019-02-22T09:00:25.394Z,38.73
2019-02-22T09:02:59.198Z,34.30
2019-02-22T09:05:28.929Z,33.43
2019-02-22T09:07:58.686Z,29.93
2019-02-22T09:10:28.591Z,32.70
2019-02-22T09:12:58.475Z,31.47
2019-02-22T09:15:28.285Z,38.43
2019-02-22T09:17:58.274Z,32.33
2019-02-22T09:20:28.247Z,32.90
2019-02-22T09:23:00.074Z,37.27
2019-02-22T09:25:29.866Z,37.73
2019-02-22T09:27:59.682Z,50.87
2019-02-22T09:30:29.428Z,38.83
2019-02-22T09:32:59.641Z,50.67
2019-02-22T09:35:34.432Z,43.60
2019-02-22T09:38:09.110Z,41.80
2019-02-22T09:40:41.582Z,40.77
2019-02-22T09:43:11.392Z,39.23
2019-02-22T09:45:41.100Z,40.77
2019-02-22T09:48:10.872Z,35.50
2019-02-22T09:50:40.756Z,37.03
2019-02-22T09:53:15.879Z,39.30
2019-02-22T09:55:45.667Z,44.00
2019-02-22T09:58:15.376Z,39.57
2019-02-22T10:00:45.074Z,44.00
2019-02-22T10:03:15.928Z,44.83
2019-02-22T10:05:45.718Z,46.73
2019-02-22T10:08:15.519Z,41.77
2019-02-22T10:10:47.239Z,45.03
2019-02-22T10:13:17.027Z,32.67
2019-02-22T10:15:47.291Z,44.50
2019-02-22T10:18:19.938Z,42.20
2019-02-22T10:20:49.980Z,33.73
2019-02-22T10:23:19.793Z,28.30
2019-02-22T10:25:49.582Z,37.53
2019-02-22T10:28:19.288Z,34.93
2019-02-22T10:30:50.107Z,32.57
2019-02-22T10:33:20.123Z,38.47
2019-02-22T10:35:49.810Z,32.57
2019-02-22T10:38:19.533Z,39.07
2019-02-22T10:40:49.346Z,42.37
2019-02-22T10:43:20.019Z,37.77
2019-02-22T10:45:49.835Z,35.50
2019-02-22T10:48:19.639Z,35.60
2019-02-22T10:50:50.414Z,40.60
2019-02-22T10:53:20.260Z,37.10
2019-02-22T10:55:50.258Z,35.33
2019-02-22T10:58:20.741Z,38.47
2019-02-22T11:00:50.612Z,37.47
2019-02-22T11:03:23.279Z,39.67
2019-02-22T11:05:53.078Z,35.20
2019-02-22T11:08:25.612Z,35.87
2019-02-22T11:10:59.794Z,34.40
2019-02-22T11:13:32.604Z,42.13
2019-02-22T11:16:02.398Z,36.83
2019-02-22T11:18:32.131Z,49.47
2019-02-22T11:21:02.208Z,36.50
2019-02-22T11:23:33.475Z,39.40
2019-02-22T11:26:03.601Z,46.30
2019-02-22T11:28:33.571Z,39.77
2019-02-22T11:31:03.403Z,35.60
2019-02-22T11:33:35.626Z,25.40
2019-02-22T11:36:06.688Z,27.03
2019-02-22T11:38:36.498Z,22.53
2019-02-22T11:41:06.270Z,22.97
2019-02-22T11:43:38.488Z,25.30
2019-02-22T11:46:08.614Z,37.40
2019-02-22T11:48:38.457Z,32.07
2019-02-22T11:51:08.307Z,30.83
2019-02-22T11:53:37.992Z,29.37
2019-02-22T11:56:10.834Z,30.93
2019-02-22T11:58:42.098Z,29.70
2019-02-22T12:01:16.873Z,28.57
2019-02-22T12:03:43.747Z,34.33
2019-02-22T12:06:13.478Z,26.43
2019-02-22T12:08:43.323Z,26.40
2019-02-22T12:11:13.135Z,28.63
2019-02-22T12:13:42.822Z,24.20
2019-02-22T12:16:13.670Z,8.63
2019-02-22T12:18:44.495Z,4.00
2019-02-22T12:21:14.346Z,4.50
2019-02-22T12:23:47.128Z,4.97
2019-02-22T12:26:18.171Z,1.50
2019-02-22T12:28:47.960Z,2.50
2019-02-22T12:31:17.750Z,4.53
2019-02-22T12:33:50.383Z,1.70
2019-02-22T12:36:20.161Z,3.87
2019-02-22T12:38:49.934Z,5.40
2019-02-22T12:41:19.745Z,9.93
2019-02-22T12:43:49.546Z,5.73
2019-02-22T12:46:19.412Z,10.47
2019-02-22T12:48:49.503Z,11.63
2019-02-22T12:51:20.418Z,10.67
2019-02-22T12:53:50.911Z,6.63
2019-02-22T12:56:48.564Z,8.43
2019-02-22T12:58:56.860Z,7.33
2019-02-22T13:01:26.856Z,13.03
2019-02-22T13:04:04.615Z,8.23
2019-02-22T13:06:43.737Z,8.90
2019-02-22T13:09:13.929Z,4.70
2019-02-22T13:11:43.642Z,7.73
2019-02-22T13:14:15.590Z,4.13
2019-02-22T13:16:47.354Z,3.33
2019-02-22T13:19:21.370Z,3.87
2019-02-22T13:21:51.310Z,3.47
2019-02-22T13:24:23.030Z,4.63
2019-02-22T13:26:54.741Z,3.17
2019-02-22T13:29:26.236Z,5.37
2019-02-22T13:32:01.973Z,6.57
2019-02-22T13:34:31.791Z,10.50
2019-02-22T13:37:01.547Z,6.67
2019-02-22T13:39:36.176Z,8.07
2019-02-22T13:42:07.478Z,11.33
2019-02-22T13:44:37.272Z,13.27
2019-02-22T13:47:12.795Z,14.73
2019-02-22T13:49:42.707Z,13.53
2019-02-22T13:52:12.471Z,10.97
2019-02-22T13:54:51.500Z,13.53
2019-02-22T13:57:18.963Z,16.20
2019-02-22T13:59:48.734Z,17.03
2019-02-22T14:02:18.550Z,18.70
2019-02-22T14:04:48.508Z,21.33
2019-02-22T14:07:18.219Z,28.13
2019-02-22T14:09:47.922Z,31.67
2019-02-22T14:12:19.420Z,30.13
2019-02-22T14:14:49.175Z,36.73
2019-02-22T14:17:18.873Z,35.77
2019-02-22T14:19:48.681Z,36.73
2019-02-22T14:22:18.498Z,41.73
2019-02-22T14:24:48.229Z,40.60
2019-02-22T14:27:19.734Z,39.20
2019-02-22T14:29:49.766Z,42.73
2019-02-22T14:32:19.692Z,34.90
2019-02-22T14:34:50.606Z,38.97
2019-02-22T14:37:20.391Z,50.00
2019-02-22T14:40:02.500Z,48.20
2019-02-22T14:42:28.644Z,34.30
2019-02-22T14:45:01.024Z,38.43
2019-02-22T14:47:29.880Z,41.47
2019-02-22T14:49:59.566Z,41.80
2019-02-22T14:52:29.352Z,40.07
2019-02-22T14:54:59.131Z,38.30
2019-02-22T14:57:32.621Z,39.97
2019-02-22T15:00:21.611Z,40.43
2019-02-22T15:02:51.488Z,39.00
2019-02-22T15:05:21.652Z,38.03
2019-02-22T15:07:51.660Z,34.60
2019-02-22T15:10:21.523Z,37.87
2019-02-22T15:12:51.350Z,45.83
2019-02-22T15:15:26.699Z,44.27
2019-02-22T15:18:00.112Z,40.97
2019-02-22T15:20:29.858Z,34.37
2019-02-22T15:23:02.396Z,38.80
2019-02-22T15:25:31.342Z,41.93
2019-02-22T15:28:02.684Z,36.17
2019-02-22T15:30:35.071Z,33.30
2019-02-22T15:33:05.678Z,27.87
2019-02-22T15:35:37.356Z,32.63
2019-02-22T15:38:07.166Z,38.40
2019-02-22T15:40:39.283Z,41.80
2019-02-22T15:43:08.690Z,40.40
2019-02-22T15:45:38.604Z,38.47
2019-02-22T15:48:11.219Z,40.50
2019-02-22T15:50:42.327Z,35.63
2019-02-22T15:53:12.105Z,39.57
2019-02-22T15:55:41.877Z,38.70
2019-02-22T15:58:14.004Z,32.27
2019-02-22T16:00:44.973Z,35.67
2019-02-22T16:03:17.157Z,32.90
2019-02-22T16:05:47.411Z,35.07
2019-02-22T16:08:17.318Z,33.30
2019-02-22T16:10:50.656Z,31.33
2019-02-22T16:13:20.426Z,35.30
2019-02-22T16:15:50.317Z,34.37
2019-02-22T16:18:22.280Z,34.77
2019-02-22T16:20:53.402Z,33.10
2019-02-22T16:23:23.139Z,29.93
2019-02-22T16:26:00.957Z,29.10
2019-02-22T16:28:29.200Z,31.40
2019-02-22T16:30:59.136Z,31.70
2019-02-22T16:33:28.938Z,29.57
2019-02-22T16:35:58.814Z,29.87
2019-02-22T16:38:28.605Z,33.50
2019-02-22T16:40:58.351Z,32.23
2019-02-22T16:43:30.114Z,33.23
2019-02-22T16:45:59.807Z,33.13
2019-02-22T16:48:30.974Z,34.63
2019-02-22T16:53:52.066Z,33.07
2019-02-22T16:56:23.634Z,36.33
2019-02-22T16:58:53.411Z,33.80
2019-02-22T17:01:24.983Z,37.60
2019-02-22T17:03:57.210Z,28.83
2019-02-22T17:06:30.168Z,29.30
2019-02-22T17:09:00.619Z,37.07
2019-02-22T17:11:35.118Z,30.13
2019-02-22T17:14:07.761Z,36.13
2019-02-22T17:16:45.434Z,39.07
2019-02-22T17:19:09.956Z,37.87
2019-02-22T17:21:39.726Z,33.20
2019-02-22T17:24:09.427Z,36.63
2019-02-22T17:26:41.752Z,37.80
2019-02-22T17:29:11.784Z,36.53
2019-02-22T17:31:47.049Z,31.13
2019-02-22T17:34:16.797Z,32.27
2019-02-22T17:36:49.826Z,35.73
2019-02-22T17:39:19.547Z,34.97
2019-02-22T17:41:52.698Z,36.03
2019-02-22T17:44:22.384Z,30.07
2019-02-22T17:46:57.603Z,30.87
2019-02-22T17:49:23.738Z,29.70
2019-02-22T17:51:53.597Z,27.43
2019-02-22T17:54:27.062Z,35.67
2019-02-22T17:56:56.790Z,28.07
2019-02-22T17:59:26.500Z,28.10
2019-02-22T18:01:58.946Z,26.80
2019-02-22T18:04:31.600Z,29.70
2019-02-22T18:07:02.385Z,32.73
2019-02-22T18:09:32.099Z,27.30
2019-02-22T18:12:01.786Z,29.37
2019-02-22T18:14:31.515Z,28.33
2019-02-22T18:17:08.388Z,26.90
2019-02-22T18:19:33.187Z,25.30
2019-02-22T18:22:04.959Z,25.30
2019-02-22T18:24:36.407Z,24.90
2019-02-22T18:27:08.072Z,27.53
2019-02-22T18:29:39.130Z,21.33
2019-02-22T18:32:10.336Z,20.67
2019-02-22T18:34:44.747Z,20.63
2019-02-22T18:37:14.439Z,24.53
2019-02-22T18:39:44.299Z,22.20
2019-02-22T18:42:14.058Z,24.27
2019-02-22T18:44:45.122Z,26.20
2019-02-22T18:47:19.320Z,23.00
2019-02-22T18:49:46.895Z,21.07
2019-02-22T18:52:16.761Z,23.60
2019-02-22T18:54:46.571Z,25.80
2019-02-22T18:57:16.381Z,24.10
2019-02-22T18:59:49.082Z,23.37
2019-02-22T19:02:20.508Z,18.73
2019-02-22T19:04:50.446Z,20.07
2019-02-22T19:07:22.636Z,25.87
2019-02-22T19:09:54.895Z,26.33
2019-02-22T19:12:29.344Z,20.90
2019-02-22T19:14:59.057Z,23.80
2019-02-22T19:17:30.676Z,20.93
2019-02-22T19:20:00.333Z,26.97
2019-02-22T19:22:30.271Z,18.60
2019-02-22T19:25:00.051Z,27.93
2019-02-22T19:27:31.714Z,21.87
2019-02-22T19:30:02.387Z,25.80
2019-02-22T19:32:35.714Z,24.77
2019-02-22T19:35:05.783Z,26.20
2019-02-22T19:37:35.840Z,24.03
2019-02-22T19:40:09.302Z,24.53
2019-02-22T19:42:42.808Z,23.13
2019-02-22T19:45:14.274Z,20.93
2019-02-22T19:47:45.408Z,24.30
2019-02-22T19:50:15.295Z,23.97
2019-02-22T19:52:47.125Z,28.23
2019-02-22T19:55:18.626Z,23.43
2019-02-22T19:57:48.411Z,25.20
2019-02-22T20:00:27.591Z,22.50
2019-02-22T20:03:02.015Z,21.50
2019-02-22T20:05:33.115Z,24.07
2019-02-22T20:08:05.834Z,24.70
2019-02-22T20:10:35.605Z,24.10
2019-02-22T20:13:06.041Z,22.17
2019-02-22T20:15:35.878Z,24.70
2019-02-22T20:18:07.290Z,24.50
2019-02-22T20:20:37.140Z,26.10
2019-02-22T20:23:09.203Z,24.20
2019-02-22T20:25:38.924Z,29.93
2019-02-22T20:28:08.683Z,28.37
2019-02-22T20:30:38.414Z,24.80
2019-02-22T20:33:08.092Z,30.77
2019-02-22T20:35:41.896Z,26.30
2019-02-22T20:38:11.586Z,31.07
2019-02-22T20:40:41.394Z,43.30
2019-02-22T20:43:11.277Z,31.90
2019-02-22T20:45:50.318Z,28.37
2019-02-22T20:48:20.176Z,32.03
2019-02-22T20:50:49.982Z,27.40
2019-02-22T20:53:19.748Z,38.77
2019-02-22T20:55:49.554Z,31.83
2019-02-22T20:58:23.498Z,37.40
2019-02-22T21:00:54.127Z,37.80
2019-02-22T21:03:28.731Z,49.90
2019-02-22T21:06:02.065Z,55.07
2019-02-22T21:08:31.859Z,41.17
2019-02-22T21:11:02.831Z,53.80
2019-02-22T21:13:37.787Z,49.70
2019-02-22T21:16:08.849Z,53.80
2019-02-22T21:18:40.025Z,62.60
2019-02-22T21:21:10.010Z,66.97
2019-02-22T21:23:40.863Z,56.47
2019-02-22T21:26:10.558Z,62.67
2019-02-22T21:28:41.580Z,64.03
2019-02-22T21:31:15.230Z,61.43
2019-02-22T21:33:45.020Z,63.57
2019-02-22T21:36:22.359Z,59.83
2019-02-22T21:38:54.437Z,59.77
2019-02-22T21:41:25.575Z,60.27
2019-02-22T21:43:57.450Z,56.53
2019-02-22T21:46:28.827Z,64.47
2019-02-22T21:49:00.155Z,64.40
2019-02-22T21:51:31.694Z,77.03
2019-02-22T21:54:04.415Z,72.10
2019-02-22T21:56:39.962Z,71.03
2019-02-22T21:59:13.671Z,66.43
2019-02-22T22:01:43.566Z,83.37
2019-02-22T22:04:15.611Z,71.27
2019-02-22T22:06:45.347Z,72.57
2019-02-22T22:09:16.247Z,67.17
2019-02-22T22:11:48.804Z,63.20
2019-02-22T22:14:21.310Z,56.57
2019-02-22T22:16:51.575Z,74.80
2019-02-22T22:19:21.711Z,59.93
2019-02-22T22:21:53.022Z,65.40
2019-02-22T22:24:25.078Z,68.33
2019-02-22T22:27:04.301Z,65.47
2019-02-22T22:29:34.002Z,71.23
2019-02-22T22:32:06.168Z,69.80
2019-02-22T22:34:35.853Z,57.17
2019-02-22T22:37:06.922Z,61.57
2019-02-22T22:39:38.089Z,59.27
2019-02-22T22:42:08.007Z,65.97
2019-02-22T22:44:39.562Z,65.97
2019-02-22T22:47:10.696Z,70.80
2019-02-22T22:49:49.347Z,62.13
2019-02-22T22:52:26.495Z,57.57
2019-02-22T22:55:01.262Z,64.43
2019-02-22T22:57:31.093Z,75.73
2019-02-22T23:00:00.782Z,57.53
2019-02-22T23:02:34.190Z,76.03
2019-02-22T23:05:07.855Z,67.00
2019-02-22T23:07:37.604Z,63.67
2019-02-22T23:10:07.458Z,58.57
2019-02-22T23:12:37.229Z,69.67
2019-02-22T23:15:11.783Z,65.53
2019-02-22T23:17:41.783Z,63.43
2019-02-22T23:20:15.671Z,58.50
2019-02-22T23:22:45.534Z,65.03
2019-02-22T23:25:15.820Z,70.13
2019-02-22T23:27:54.014Z,64.47
2019-02-22T23:30:23.849Z,53.27
2019-02-22T23:32:53.642Z,58.40
2019-02-22T23:35:23.489Z,67.17
2019-02-22T23:37:56.424Z,51.87
2019-02-22T23:40:26.297Z,53.23
2019-02-22T23:42:56.093Z,62.80
2019-02-22T23:45:29.644Z,64.13
2019-02-22T23:48:00.179Z,60.13
2019-02-22T23:50:29.985Z,81.50
2019-02-22T23:52:59.693Z,64.07
2019-02-22T23:55:29.410Z,54.13
2019-02-22T23:57:59.203Z,66.70
